createdAt,value
2023-04-04T00:00:00.153Z, 0
2023-04-04T00:02:00.142Z, 0
2023-04-04T00:04:00.261Z, 0
2023-04-04T00:06:00.163Z, 0
2023-04-04T00:08:00.125Z, 0
2023-04-04T00:10:00.186Z, 0
2023-04-04T00:12:00.134Z, 0
2023-04-04T00:14:00.089Z, 0
2023-04-04T00:16:00.091Z, 0
2023-04-04T00:18:00.077Z, 0
2023-04-04T00:20:00.066Z, 0
2023-04-04T00:22:00.071Z, 0
2023-04-04T00:24:00.061Z, 0
2023-04-04T00:26:00.042Z, 0
2023-04-04T00:28:00.042Z, 0
2023-04-04T00:30:00.086Z, 0
2023-04-04T00:32:00.170Z, 0
2023-04-04T00:34:00.052Z, 0
2023-04-04T00:36:00.115Z, 0
2023-04-04T00:38:00.041Z, 0
2023-04-04T00:40:00.048Z, 0
2023-04-04T00:42:00.045Z, 0
2023-04-04T00:44:00.121Z, 0
2023-04-04T00:46:00.200Z, 0
2023-04-04T00:48:00.168Z, 0
2023-04-04T00:50:00.157Z, 0
2023-04-04T00:52:00.118Z, 0
2023-04-04T00:54:00.163Z, 0
2023-04-04T00:56:00.138Z, 0
2023-04-04T00:58:00.118Z, 0
2023-04-04T01:00:00.282Z, 0
2023-04-04T01:02:00.169Z, 0
2023-04-04T01:04:00.190Z, 0
2023-04-04T01:06:00.160Z, 0
2023-04-04T01:08:00.121Z, 0
2023-04-04T01:10:00.156Z, 0
2023-04-04T01:12:00.115Z, 0
2023-04-04T01:14:00.076Z, 0
2023-04-04T01:16:00.054Z, 0
2023-04-04T01:18:00.153Z, 0
2023-04-04T01:20:00.052Z, 0
2023-04-04T01:22:00.051Z, 0
2023-04-04T01:24:00.095Z, 0
2023-04-04T01:26:00.045Z, 0
2023-04-04T01:28:00.023Z, 0
2023-04-04T01:30:00.055Z, 0
2023-04-04T01:32:00.036Z, 0
2023-04-04T01:34:00.054Z, 0
2023-04-04T01:36:00.136Z, 0
2023-04-04T01:38:00.042Z, 0
2023-04-04T01:40:00.045Z, 0
2023-04-04T01:42:00.031Z, 0
2023-04-04T01:44:00.110Z, 0
2023-04-04T01:46:00.164Z, 0
2023-04-04T01:48:00.169Z, 0
2023-04-04T01:50:00.185Z, 0
2023-04-04T01:52:00.112Z, 0
2023-04-04T01:54:00.116Z, 0
2023-04-04T01:56:00.105Z, 0
2023-04-04T01:58:00.151Z, 0
2023-04-04T02:00:00.141Z, 0
2023-04-04T02:02:00.136Z, 0
2023-04-04T02:04:00.224Z, 0
2023-04-04T02:06:00.134Z, 0
2023-04-04T02:08:00.113Z, 0
2023-04-04T02:10:00.173Z, 0
2023-04-04T02:12:00.126Z, 0
2023-04-04T02:14:00.096Z, 0
2023-04-04T02:16:00.157Z, 0
2023-04-04T02:18:01.866Z, 0
2023-04-04T02:20:00.055Z, 0
2023-04-04T02:22:00.050Z, 0
2023-04-04T02:24:00.061Z, 0
2023-04-04T02:26:00.068Z, 0
2023-04-04T02:28:00.029Z, 0
2023-04-04T02:30:00.054Z, 0
2023-04-04T02:32:00.053Z, 0
2023-04-04T02:34:00.040Z, 0
2023-04-04T02:36:00.159Z, 0
2023-04-04T02:38:00.044Z, 0
2023-04-04T02:40:00.036Z, 0
2023-04-04T02:42:00.050Z, 0
2023-04-04T02:44:00.121Z, 0
2023-04-04T02:46:05.135Z, 0
2023-04-04T02:48:00.187Z, 0
2023-04-04T02:50:00.146Z, 0
2023-04-04T02:52:00.147Z, 0
2023-04-04T02:54:00.113Z, 0
2023-04-04T02:56:00.143Z, 0
2023-04-04T02:58:00.128Z, 0
2023-04-04T03:00:00.119Z, 0
2023-04-04T03:02:00.230Z, 0
2023-04-04T03:04:00.255Z, 0
2023-04-04T03:06:00.239Z, 0
2023-04-04T03:08:00.161Z, 0
2023-04-04T03:10:00.172Z, 0
2023-04-04T03:12:00.136Z, 0
2023-04-04T03:14:00.086Z, 0
2023-04-04T03:16:00.084Z, 0
2023-04-04T03:18:00.215Z, 0
2023-04-04T03:20:00.055Z, 0
2023-04-04T03:22:00.043Z, 0
2023-04-04T03:24:00.060Z, 0
2023-04-04T03:26:00.043Z, 0
2023-04-04T03:28:00.019Z, 0
2023-04-04T03:30:00.104Z, 0
2023-04-04T03:32:00.106Z, 0
2023-04-04T03:34:00.085Z, 0
2023-04-04T03:36:00.085Z, 0
2023-04-04T03:38:00.056Z, 0
2023-04-04T03:40:00.084Z, 0
2023-04-04T03:42:00.090Z, 0
2023-04-04T03:44:00.100Z, 0
2023-04-04T03:46:00.163Z, 0
2023-04-04T03:48:00.175Z, 0
2023-04-04T03:50:00.175Z, 0
2023-04-04T03:52:00.117Z, 0
2023-04-04T03:54:00.151Z, 0
2023-04-04T03:56:00.122Z, 0
2023-04-04T03:58:00.122Z, 0
2023-04-04T04:00:00.150Z, 0
2023-04-04T04:02:00.116Z, 0
2023-04-04T04:04:00.211Z, 0
2023-04-04T04:06:00.108Z, 0
2023-04-04T04:08:00.112Z, 0
2023-04-04T04:10:00.148Z, 0
2023-04-04T04:12:00.129Z, 0
2023-04-04T04:14:00.086Z, 0
2023-04-04T04:16:00.148Z, 0
2023-04-04T04:18:00.169Z, 0
2023-04-04T04:20:00.059Z, 0
2023-04-04T04:22:00.088Z, 0
2023-04-04T04:24:00.059Z, 0
2023-04-04T04:26:00.040Z, 0
2023-04-04T04:28:00.039Z, 1
2023-04-04T04:30:00.094Z, 2
2023-04-04T04:32:00.161Z, 4
2023-04-04T04:34:00.066Z, 7
2023-04-04T04:36:01.652Z, 10
2023-04-04T04:38:00.081Z, 15
2023-04-04T04:40:00.117Z, 23
2023-04-04T04:42:00.084Z, 34
2023-04-04T04:44:00.088Z, 49
2023-04-04T04:46:00.105Z, 70
2023-04-04T04:48:00.149Z, 95
2023-04-04T04:50:00.133Z, 126
2023-04-04T04:52:00.143Z, 165
2023-04-04T04:54:00.171Z, 210
2023-04-04T04:56:00.123Z, 268
2023-04-04T04:58:00.154Z, 337
2023-04-04T05:00:00.164Z, 419
2023-04-04T05:02:00.130Z, 509
2023-04-04T05:04:00.095Z, 613
2023-04-04T05:06:00.120Z, 725
2023-04-04T05:08:00.122Z, 839
2023-04-04T05:10:00.121Z, 970
2023-04-04T05:12:00.142Z, 1120
2023-04-04T05:14:00.078Z, 1275
2023-04-04T05:16:00.048Z, 1440
2023-04-04T05:18:00.133Z, 1611
2023-04-04T05:20:00.099Z, 1791
2023-04-04T05:22:00.069Z, 1975
2023-04-04T05:24:00.089Z, 2128
2023-04-04T05:26:00.042Z, 2353
2023-04-04T05:28:00.049Z, 2615
2023-04-04T05:30:00.101Z, 2961
2023-04-04T05:32:00.103Z, 3233
2023-04-04T05:34:00.081Z, 3565
2023-04-04T05:36:00.200Z, 3846
2023-04-04T05:38:00.113Z, 3896
2023-04-04T05:40:00.103Z, 4477
2023-04-04T05:42:00.107Z, 7171
2023-04-04T05:44:00.141Z, 6814
2023-04-04T05:46:00.139Z, 7065
2023-04-04T05:48:00.156Z, 7695
2023-04-04T05:50:00.113Z, 8995
2023-04-04T05:52:00.106Z, 9530
2023-04-04T05:54:00.106Z, 10366
2023-04-04T05:56:00.118Z, 11110
2023-04-04T05:58:00.113Z, 11290
2023-04-04T06:00:00.128Z, 11063
2023-04-04T06:02:00.113Z, 10459
2023-04-04T06:04:00.106Z, 8028
2023-04-04T06:06:00.178Z, 7946
2023-04-04T06:08:00.117Z, 9092
2023-04-04T06:10:00.133Z, 10054
2023-04-04T06:12:00.169Z, 11078
2023-04-04T06:14:00.108Z, 10300
2023-04-04T06:16:00.137Z, 11641
2023-04-04T06:18:00.167Z, 11595
2023-04-04T06:20:00.122Z, 9168
2023-04-04T06:22:00.125Z, 12279
2023-04-04T06:24:00.110Z, 11720
2023-04-04T06:26:00.136Z, 12074
2023-04-04T06:28:00.113Z, 12007
2023-04-04T06:30:00.133Z, 13340
2023-04-04T06:32:00.123Z, 13431
2023-04-04T06:34:00.118Z, 12264
2023-04-04T06:36:00.197Z, 14291
2023-04-04T06:38:00.072Z, 15404
2023-04-04T06:40:00.167Z, 16619
2023-04-04T06:42:00.127Z, 18410
2023-04-04T06:44:00.125Z, 19644
2023-04-04T06:46:00.122Z, 21028
2023-04-04T06:48:00.239Z, 19897
2023-04-04T06:50:00.145Z, 22627
2023-04-04T06:52:00.128Z, 22976
2023-04-04T06:54:00.170Z, 23510
2023-04-04T06:56:00.129Z, 22232
2023-04-04T06:58:00.147Z, 19955
2023-04-04T07:00:00.230Z, 21041
2023-04-04T07:02:00.164Z, 19666
2023-04-04T07:04:00.130Z, 21819
2023-04-04T07:06:00.152Z, 22412
2023-04-04T07:08:00.120Z, 23466
2023-04-04T07:10:00.130Z, 24775
2023-04-04T07:12:00.134Z, 21612
2023-04-04T07:14:00.110Z, 21213
2023-04-04T07:16:00.166Z, 22720
2023-04-04T07:18:00.168Z, 23779
2023-04-04T07:20:00.935Z, 22756
2023-04-04T07:22:00.069Z, 22608
2023-04-04T07:24:00.123Z, 23255
2023-04-04T07:26:00.048Z, 22210
2023-04-04T07:28:11.724Z, 24410
2023-04-04T07:30:00.124Z, 23885
2023-04-04T07:32:00.136Z, 23610
2023-04-04T07:34:00.053Z, 24854
2023-04-04T07:36:00.084Z, 22358
2023-04-04T07:38:00.052Z, 25550
2023-04-04T07:40:00.068Z, 26820
2023-04-04T07:42:00.041Z, 27025
2023-04-04T07:44:00.108Z, 27463
2023-04-04T07:46:00.198Z, 27111
2023-04-04T07:48:00.202Z, 28398
2023-04-04T07:50:00.199Z, 29066
2023-04-04T07:52:00.109Z, 31286
2023-04-04T07:54:00.118Z, 32987
2023-04-04T07:56:00.124Z, 33915
2023-04-04T07:58:00.127Z, 34340
2023-04-04T08:00:00.184Z, 36228
2023-04-04T08:02:00.122Z, 41395
2023-04-04T08:04:00.395Z, 54612
2023-04-04T08:06:00.156Z, 54612
2023-04-04T08:08:00.116Z, 54612
2023-04-04T08:10:00.150Z, 21138
2023-04-04T08:12:00.125Z, 17732
2023-04-04T08:14:00.138Z, 15460
2023-04-04T08:16:00.150Z, 15250
2023-04-04T08:18:00.144Z, 15039
2023-04-04T08:20:00.090Z, 15070
2023-04-04T08:22:00.111Z, 14486
2023-04-04T08:24:00.110Z, 14013
2023-04-04T08:26:00.102Z, 13440
2023-04-04T08:28:00.056Z, 12982
2023-04-04T08:30:00.103Z, 13920
2023-04-04T08:32:00.082Z, 14067
2023-04-04T08:34:00.103Z, 12536
2023-04-04T08:36:00.232Z, 12700
2023-04-04T08:38:00.086Z, 12724
2023-04-04T08:40:00.135Z, 12363
2023-04-04T08:42:00.112Z, 12430
2023-04-04T08:44:00.100Z, 12932
2023-04-04T08:46:00.124Z, 12956
2023-04-04T08:48:00.197Z, 14239
2023-04-04T08:50:00.098Z, 51201
2023-04-04T08:52:00.211Z, 47710
2023-04-04T08:54:00.112Z, 37634
2023-04-04T08:56:00.163Z, 34613
2023-04-04T08:58:00.125Z, 37335
2023-04-04T09:00:00.260Z, 36235
2023-04-04T09:02:01.386Z, 32895
2023-04-04T09:04:00.125Z, 41414
2023-04-04T09:06:00.174Z, 43947
2023-04-04T09:08:00.150Z, 48961
2023-04-04T09:10:00.190Z, 54612
2023-04-04T09:12:00.143Z, 54612
2023-04-04T09:14:00.112Z, 54612
2023-04-04T09:16:00.148Z, 54612
2023-04-04T09:18:00.138Z, 54612
2023-04-04T09:20:00.117Z, 54612
2023-04-04T09:22:00.085Z, 54612
2023-04-04T09:24:00.103Z, 54612
2023-04-04T09:26:03.726Z, 54612
2023-04-04T09:28:00.057Z, 54612
2023-04-04T09:30:00.067Z, 54612
2023-04-04T09:32:00.101Z, 54612
2023-04-04T09:34:00.082Z, 54302
2023-04-04T09:36:00.132Z, 54492
2023-04-04T09:38:00.073Z, 54547
2023-04-04T09:40:00.108Z, 51395
2023-04-04T09:42:00.049Z, 51132
2023-04-04T09:44:00.109Z, 50598
2023-04-04T09:46:00.173Z, 49963
2023-04-04T09:48:00.176Z, 52994
2023-04-04T09:50:00.175Z, 53205
2023-04-04T09:52:00.119Z, 52119
2023-04-04T09:54:00.162Z, 53809
2023-04-04T09:56:00.123Z, 53356
2023-04-04T09:58:00.131Z, 51890
2023-04-04T10:00:00.255Z, 50379
2023-04-04T10:02:00.224Z, 51415
2023-04-04T10:04:00.237Z, 52275
2023-04-04T10:06:00.141Z, 50060
2023-04-04T10:08:00.135Z, 46179
2023-04-04T10:10:00.162Z, 50074
2023-04-04T10:12:00.147Z, 52086
2023-04-04T10:14:00.116Z, 52478
2023-04-04T10:16:00.098Z, 51115
2023-04-04T10:18:00.195Z, 51292
2023-04-04T10:20:00.118Z, 53274
2023-04-04T10:22:00.046Z, 52955
2023-04-04T10:24:00.108Z, 54134
2023-04-04T10:26:00.061Z, 53005
2023-04-04T10:28:00.011Z, 50090
2023-04-04T10:30:00.068Z, 50840
2023-04-04T10:32:00.116Z, 52022
2023-04-04T10:34:00.088Z, 52835
2023-04-04T10:36:00.147Z, 52732
2023-04-04T10:38:00.102Z, 52150
2023-04-04T10:40:00.122Z, 52625
2023-04-04T10:42:00.106Z, 52934
2023-04-04T10:44:00.139Z, 51533
2023-04-04T10:46:00.105Z, 50701
2023-04-04T10:48:00.258Z, 51163
2023-04-04T10:50:00.159Z, 52935
2023-04-04T10:52:00.137Z, 50272
2023-04-04T10:54:00.123Z, 50985
2023-04-04T10:56:00.138Z, 52891
2023-04-04T10:58:00.104Z, 52344
2023-04-04T11:00:00.173Z, 51135
2023-04-04T11:02:00.120Z, 51164
2023-04-04T11:04:00.236Z, 51321
2023-04-04T11:06:00.161Z, 53836
2023-04-04T11:08:08.213Z, 54141
2023-04-04T11:10:00.143Z, 52364
2023-04-04T11:12:00.117Z, 53504
2023-04-04T11:14:00.113Z, 53268
2023-04-04T11:16:00.218Z, 53561
2023-04-04T11:18:00.225Z, 53413
2023-04-04T11:20:00.122Z, 52011
2023-04-04T11:22:00.162Z, 50800
2023-04-04T11:24:00.125Z, 52611
2023-04-04T11:26:00.110Z, 50745
2023-04-04T11:28:00.217Z, 48088
2023-04-04T11:30:00.078Z, 48784
2023-04-04T11:32:00.191Z, 51211
2023-04-04T11:34:00.129Z, 50293
2023-04-04T11:36:00.184Z, 50730
2023-04-04T11:38:00.099Z, 49251
2023-04-04T11:40:00.095Z, 49591
2023-04-04T11:42:00.065Z, 47876
2023-04-04T11:44:00.113Z, 48976
2023-04-04T11:46:00.140Z, 46679
2023-04-04T11:48:00.186Z, 48815
2023-04-04T11:50:00.135Z, 49805
2023-04-04T11:52:00.117Z, 49865
2023-04-04T11:54:00.139Z, 49917
2023-04-04T11:56:00.128Z, 49415
2023-04-04T11:58:00.132Z, 49197
2023-04-04T12:00:00.148Z, 47493
2023-04-04T12:02:00.113Z, 46499
2023-04-04T12:04:00.137Z, 46940
2023-04-04T12:06:00.212Z, 49756
2023-04-04T12:08:00.138Z, 50178
2023-04-04T12:10:00.195Z, 50595
2023-04-04T12:12:00.200Z, 49690
2023-04-04T12:14:00.089Z, 48230
2023-04-04T12:16:00.074Z, 46605
2023-04-04T12:18:00.173Z, 44427
2023-04-04T12:20:00.056Z, 45647
2023-04-04T12:22:00.047Z, 45171
2023-04-04T12:24:00.103Z, 44240
2023-04-04T12:26:00.057Z, 44112
2023-04-04T12:28:00.068Z, 43325
2023-04-04T12:30:00.156Z, 44013
2023-04-04T12:32:00.039Z, 44095
2023-04-04T12:34:00.045Z, 43607
2023-04-04T12:36:00.106Z, 44113
2023-04-04T12:38:00.049Z, 43975
2023-04-04T12:40:00.049Z, 43481
2023-04-04T12:42:00.066Z, 43210
2023-04-04T12:44:00.140Z, 41835
2023-04-04T12:46:00.129Z, 42497
2023-04-04T12:48:00.230Z, 42660
2023-04-04T12:50:00.120Z, 41858
2023-04-04T12:52:00.112Z, 41157
2023-04-04T12:54:00.140Z, 42711
2023-04-04T12:56:00.121Z, 46017
2023-04-04T12:58:00.131Z, 45643
2023-04-04T13:00:00.148Z, 44142
2023-04-04T13:02:00.122Z, 43986
2023-04-04T13:04:00.205Z, 41885
2023-04-04T13:06:00.205Z, 41410
2023-04-04T13:08:00.126Z, 42370
2023-04-04T13:10:00.154Z, 44748
2023-04-04T13:12:00.173Z, 45240
2023-04-04T13:14:00.047Z, 45002
2023-04-04T13:16:00.044Z, 44472
2023-04-04T13:18:00.164Z, 41991
2023-04-04T13:20:00.040Z, 34694
2023-04-04T13:22:00.053Z, 40580
2023-04-04T13:24:00.106Z, 43681
2023-04-04T13:26:00.109Z, 44535
2023-04-04T13:28:00.065Z, 45323
2023-04-04T13:30:00.070Z, 46078
2023-04-04T13:32:00.065Z, 46914
2023-04-04T13:34:00.082Z, 44177
2023-04-04T13:36:00.094Z, 28177
2023-04-04T13:38:00.049Z, 43216
2023-04-04T13:40:00.078Z, 47917
2023-04-04T13:42:00.066Z, 47860
2023-04-04T13:44:00.105Z, 45682
2023-04-04T13:46:00.172Z, 46712
2023-04-04T13:48:00.175Z, 46100
2023-04-04T13:50:00.186Z, 40949
2023-04-04T13:52:00.122Z, 42970
2023-04-04T13:54:00.156Z, 41228
2023-04-04T13:56:17.103Z, 38236
2023-04-04T13:58:00.126Z, 39127
2023-04-04T14:00:00.178Z, 34555
2023-04-04T14:02:00.193Z, 33972
2023-04-04T14:04:01.926Z, 33946
2023-04-04T14:06:06.410Z, 33475
2023-04-04T14:08:00.126Z, 30851
2023-04-04T14:10:00.208Z, 34178
2023-04-04T14:12:00.165Z, 31880
2023-04-04T14:14:00.095Z, 30290
2023-04-04T14:16:00.096Z, 31612
2023-04-04T14:18:00.110Z, 31288
2023-04-04T14:20:00.043Z, 37556
2023-04-04T14:22:00.051Z, 28181
2023-04-04T14:24:00.070Z, 26977
2023-04-04T14:26:00.104Z, 34080
2023-04-04T14:28:00.097Z, 38126
2023-04-04T14:30:00.088Z, 49213
2023-04-04T14:32:00.079Z, 49921
2023-04-04T14:34:00.040Z, 45600
2023-04-04T14:36:00.055Z, 40920
2023-04-04T14:38:00.053Z, 38690
2023-04-04T14:40:00.118Z, 37894
2023-04-04T14:42:00.055Z, 38077
2023-04-04T14:44:00.141Z, 40468
2023-04-04T14:46:00.132Z, 40252
2023-04-04T14:48:00.222Z, 35289
2023-04-04T14:50:00.187Z, 33033
2023-04-04T14:54:00.163Z, 33086
2023-04-04T14:56:00.114Z, 31985
2023-04-04T14:58:02.514Z, 29775
2023-04-04T15:00:00.128Z, 26715
2023-04-04T15:02:00.110Z, 26299
2023-04-04T15:04:00.133Z, 28672
2023-04-04T15:06:00.119Z, 27688
2023-04-04T15:08:00.078Z, 22081
2023-04-04T15:10:00.124Z, 18825
2023-04-04T15:12:00.117Z, 21436
2023-04-04T15:14:00.102Z, 27557
2023-04-04T15:16:00.233Z, 23885
2023-04-04T15:18:00.119Z, 21102
2023-04-04T15:20:00.112Z, 21178
2023-04-04T15:22:00.113Z, 19974
2023-04-04T15:24:00.129Z, 19397
2023-04-04T15:26:00.118Z, 18425
2023-04-04T15:28:00.108Z, 18688
2023-04-04T15:30:00.150Z, 17841
2023-04-04T15:32:00.139Z, 17875
2023-04-04T15:34:00.094Z, 17510
2023-04-04T15:36:00.102Z, 17615
2023-04-04T15:38:00.099Z, 16825
2023-04-04T15:40:00.127Z, 17695
2023-04-04T15:42:00.130Z, 17342
2023-04-04T15:44:00.127Z, 18062
2023-04-04T15:46:00.196Z, 19093
2023-04-04T15:48:00.159Z, 20078
2023-04-04T15:50:00.096Z, 24033
2023-04-04T15:52:00.095Z, 31905
2023-04-04T15:54:00.124Z, 23973
2023-04-04T15:56:00.065Z, 14814
2023-04-04T15:58:00.115Z, 16941
2023-04-04T16:00:00.140Z, 16824
2023-04-04T16:02:00.074Z, 12754
2023-04-04T16:04:00.182Z, 10825
2023-04-04T16:06:00.118Z, 14414
2023-04-04T16:08:00.109Z, 12920
2023-04-04T16:10:00.105Z, 12886
2023-04-04T16:12:00.128Z, 12570
2023-04-04T16:14:00.083Z, 11231
2023-04-04T16:16:00.180Z, 9069
2023-04-04T16:18:00.231Z, 10135
2023-04-04T16:20:00.117Z, 11085
2023-04-04T16:22:00.127Z, 10935
2023-04-04T16:24:00.126Z, 10449
2023-04-04T16:26:00.114Z, 9580
2023-04-04T16:28:00.144Z, 9696
2023-04-04T16:30:00.138Z, 9454
2023-04-04T16:32:00.112Z, 9362
2023-04-04T16:34:00.103Z, 9114
2023-04-04T16:36:00.094Z, 8375
2023-04-04T16:38:00.081Z, 6221
2023-04-04T16:40:00.107Z, 7345
2023-04-04T16:42:00.125Z, 7695
2023-04-04T16:44:00.109Z, 7360
2023-04-04T16:46:00.126Z, 7080
2023-04-04T16:48:00.082Z, 6940
2023-04-04T16:50:00.113Z, 6840
2023-04-04T16:52:00.102Z, 6513
2023-04-04T16:54:00.143Z, 6026
2023-04-04T16:56:00.119Z, 5690
2023-04-04T16:58:00.113Z, 5310
2023-04-04T17:00:00.153Z, 4936
2023-04-04T17:02:00.117Z, 4674
2023-04-04T17:04:00.119Z, 4373
2023-04-04T17:06:00.132Z, 4013
2023-04-04T17:08:00.122Z, 3804
2023-04-04T17:10:00.161Z, 3346
2023-04-04T17:12:00.134Z, 3107
2023-04-04T17:14:00.063Z, 3050
2023-04-04T17:16:00.101Z, 2713
2023-04-04T17:18:00.175Z, 2905
2023-04-04T17:20:00.064Z, 2921
2023-04-04T17:22:00.092Z, 2920
2023-04-04T17:24:00.089Z, 2880
2023-04-04T17:26:00.050Z, 2850
2023-04-04T17:28:00.088Z, 2791
2023-04-04T17:30:00.103Z, 2725
2023-04-04T17:32:00.189Z, 2601
2023-04-04T17:34:00.066Z, 2395
2023-04-04T17:36:00.088Z, 2227
2023-04-04T17:38:00.111Z, 2020
2023-04-04T17:40:00.092Z, 1808
2023-04-04T17:42:00.059Z, 1605
2023-04-04T17:44:00.103Z, 1425
2023-04-04T17:46:00.105Z, 1256
2023-04-04T17:48:00.139Z, 1108
2023-04-04T17:50:00.128Z, 972
2023-04-04T17:52:00.143Z, 846
2023-04-04T17:54:00.114Z, 735
2023-04-04T17:56:00.142Z, 635
2023-04-04T17:58:00.119Z, 540
2023-04-04T18:00:00.193Z, 455
2023-04-04T18:02:00.175Z, 364
2023-04-04T18:04:00.190Z, 288
2023-04-04T18:06:00.129Z, 231
2023-04-04T18:08:00.132Z, 185
2023-04-04T18:10:00.208Z, 148
2023-04-04T18:12:00.233Z, 115
2023-04-04T18:14:00.105Z, 85
2023-04-04T18:16:00.182Z, 62
2023-04-04T18:18:00.130Z, 45
2023-04-04T18:20:00.036Z, 31
2023-04-04T18:22:00.259Z, 21
2023-04-04T18:24:00.109Z, 15
2023-04-04T18:26:00.021Z, 10
2023-04-04T18:28:00.005Z, 6
2023-04-04T18:30:00.052Z, 4
2023-04-04T18:32:00.193Z, 2
2023-04-04T18:34:00.048Z, 1
2023-04-04T18:36:00.130Z, 0
2023-04-04T18:38:00.058Z, 0
2023-04-04T18:40:00.065Z, 0
2023-04-04T18:42:00.084Z, 0
2023-04-04T18:44:00.107Z, 0
2023-04-04T18:46:00.110Z, 0
2023-04-04T18:48:00.164Z, 0
2023-04-04T18:50:00.113Z, 0
2023-04-04T18:52:00.120Z, 0
2023-04-04T18:54:00.111Z, 0
2023-04-04T18:56:00.128Z, 0
2023-04-04T18:58:00.117Z, 0
2023-04-04T19:00:00.162Z, 0
2023-04-04T19:02:00.126Z, 0
2023-04-04T19:04:00.139Z, 0
2023-04-04T19:06:00.143Z, 0
2023-04-04T19:08:00.125Z, 0
2023-04-04T19:10:00.178Z, 0
2023-04-04T19:12:00.165Z, 0
2023-04-04T19:14:00.117Z, 0
2023-04-04T19:16:00.123Z, 0
2023-04-04T19:18:00.140Z, 0
2023-04-04T19:20:00.072Z, 0
2023-04-04T19:22:00.062Z, 0
2023-04-04T19:24:00.064Z, 0
2023-04-04T19:26:00.057Z, 0
2023-04-04T19:28:00.039Z, 0
2023-04-04T19:30:00.092Z, 0
2023-04-04T19:32:00.052Z, 0
2023-04-04T19:34:00.066Z, 0
2023-04-04T19:36:00.147Z, 0
2023-04-04T19:38:00.051Z, 0
2023-04-04T19:40:00.093Z, 0
2023-04-04T19:42:00.124Z, 0
2023-04-04T19:44:00.099Z, 0
2023-04-04T19:46:00.168Z, 0
2023-04-04T19:48:00.224Z, 0
2023-04-04T19:50:00.177Z, 0
2023-04-04T19:52:00.132Z, 0
2023-04-04T19:54:00.139Z, 0
2023-04-04T19:56:00.147Z, 0
2023-04-04T19:58:00.127Z, 0
2023-04-04T20:00:00.122Z, 0
2023-04-04T20:02:01.018Z, 0
2023-04-04T20:04:00.118Z, 0
2023-04-04T20:06:00.145Z, 0
2023-04-04T20:08:00.107Z, 0
2023-04-04T20:10:00.109Z, 0
2023-04-04T20:12:00.129Z, 0
2023-04-04T20:14:00.142Z, 0
2023-04-04T20:16:01.643Z, 0
2023-04-04T20:18:00.181Z, 0
2023-04-04T20:20:00.137Z, 0
2023-04-04T20:22:00.126Z, 0
2023-04-04T20:24:00.100Z, 0
2023-04-04T20:26:00.067Z, 0
2023-04-04T20:28:00.057Z, 0
2023-04-04T20:30:00.101Z, 0
2023-04-04T20:32:00.224Z, 0
2023-04-04T20:34:00.054Z, 0
2023-04-04T20:36:00.120Z, 0
2023-04-04T20:38:00.065Z, 0
2023-04-04T20:40:00.083Z, 0
2023-04-04T20:42:00.100Z, 0
2023-04-04T20:44:00.118Z, 0
2023-04-04T20:46:00.183Z, 0
2023-04-04T20:48:00.174Z, 0
2023-04-04T20:50:00.134Z, 0
2023-04-04T20:52:00.084Z, 0
2023-04-04T20:54:00.111Z, 0
2023-04-04T20:56:00.153Z, 0
2023-04-04T20:58:00.110Z, 0
2023-04-04T21:00:00.153Z, 0
2023-04-04T21:02:00.124Z, 0
2023-04-04T21:04:00.197Z, 0
2023-04-04T21:06:00.106Z, 0
2023-04-04T21:08:00.110Z, 0
2023-04-04T21:10:00.120Z, 0
2023-04-04T21:12:00.124Z, 0
2023-04-04T21:14:00.084Z, 0
2023-04-04T21:16:00.122Z, 0
2023-04-04T21:18:00.146Z, 0
2023-04-04T21:20:00.102Z, 0
2023-04-04T21:22:00.094Z, 0
2023-04-04T21:24:05.096Z, 0
2023-04-04T21:26:00.068Z, 0
2023-04-04T21:28:00.045Z, 0
2023-04-04T21:30:00.090Z, 0
2023-04-04T21:32:00.124Z, 0
2023-04-04T21:34:00.076Z, 0
2023-04-04T21:36:00.163Z, 0
2023-04-04T21:38:00.046Z, 0
2023-04-04T21:40:00.041Z, 0
2023-04-04T21:42:00.049Z, 0
2023-04-04T21:44:00.116Z, 0
2023-04-04T21:46:00.137Z, 0
2023-04-04T21:48:00.190Z, 0
2023-04-04T21:50:00.176Z, 0
2023-04-04T21:52:00.131Z, 0
2023-04-04T21:54:00.109Z, 0
2023-04-04T21:56:00.133Z, 0
2023-04-04T21:58:00.128Z, 0
2023-04-04T22:00:00.216Z, 0
2023-04-04T22:02:00.160Z, 0
2023-04-04T22:04:00.098Z, 0
2023-04-04T22:06:00.141Z, 0
2023-04-04T22:08:00.120Z, 0
2023-04-04T22:10:00.157Z, 0
2023-04-04T22:12:00.111Z, 0
2023-04-04T22:14:00.092Z, 0
2023-04-04T22:16:00.161Z, 0
2023-04-04T22:18:00.139Z, 0
2023-04-04T22:20:00.110Z, 0
2023-04-04T22:22:00.108Z, 0
2023-04-04T22:24:00.118Z, 0
2023-04-04T22:26:00.097Z, 0
2023-04-04T22:28:00.045Z, 0
2023-04-04T22:30:00.090Z, 0
2023-04-04T22:32:00.143Z, 0
2023-04-04T22:34:00.056Z, 0
2023-04-04T22:36:00.108Z, 0
2023-04-04T22:38:00.108Z, 0
2023-04-04T22:40:00.133Z, 0
2023-04-04T22:42:00.069Z, 0
2023-04-04T22:44:00.117Z, 0
2023-04-04T22:46:00.176Z, 0
2023-04-04T22:48:00.120Z, 0
2023-04-04T22:50:00.117Z, 0
2023-04-04T22:52:00.102Z, 0
2023-04-04T22:54:00.146Z, 0
2023-04-04T22:56:00.125Z, 0
2023-04-04T22:58:00.140Z, 0
2023-04-04T23:00:00.143Z, 0
2023-04-04T23:02:00.120Z, 0
2023-04-04T23:04:00.169Z, 0
2023-04-04T23:06:00.121Z, 0
2023-04-04T23:08:00.124Z, 0
2023-04-04T23:10:00.143Z, 0
2023-04-04T23:12:00.190Z, 0
2023-04-04T23:14:00.050Z, 0
2023-04-04T23:16:00.136Z, 0
2023-04-04T23:18:00.149Z, 0
2023-04-04T23:20:00.049Z, 0
2023-04-04T23:22:00.068Z, 0
2023-04-04T23:25:21.063Z, 0
2023-04-04T23:26:00.050Z, 0
2023-04-04T23:28:00.119Z, 0
2023-04-04T23:30:00.151Z, 0
2023-04-04T23:32:00.055Z, 0
2023-04-04T23:34:00.100Z, 0
2023-04-04T23:36:00.152Z, 0
2023-04-04T23:38:00.050Z, 0
2023-04-04T23:40:00.113Z, 0
2023-04-04T23:42:00.080Z, 0
2023-04-04T23:44:00.150Z, 0
2023-04-04T23:46:00.106Z, 0
2023-04-04T23:48:00.254Z, 0
2023-04-04T23:50:00.133Z, 0
2023-04-04T23:52:00.142Z, 0
2023-04-04T23:54:00.125Z, 0
2023-04-04T23:56:00.144Z, 0
2023-04-04T23:58:00.166Z, 0
